Latest Weather Observations for Goulburn Airport

IDN60801

Issued at 7:03 pm EDT Thursday 21 March 2019 (issued every 10 minutes, with the page automatically refreshed every 10 minutes)

About weather observations | Map of weather stations | Latest weather observations for NSW | Other Formats
Station Details ID: 070330 Name: GOULBURN AIRPORT AWS Lat: -34.81 Lon: 149.73 Height: 640.0 m
Data from the previous 72 hours. | See also: Recent months at Goulburn Airport
Date/Time
EDT
Temp
°C
App
Temp
°C
Dew
Point
°C
Rel
Hum
%
Delta-T
°C
Wind Press
QNH
hPa
Press
MSL
hPa
Rain since
9am
mm
Dir  Spd
km/h
Gust
km/h
Spd
kts
Gust
kts
21/07:00pm 20.4 19.6 16.0 76 2.7 E 15 20 8 11 1017.8 1015.8 0.0
21/06:30pm 21.7 19.9 16.0 70 3.5 E 20 28 11 15 1017.4 1015.4 0.0
21/06:00pm 23.3 22.0 15.9 63 4.6 ENE 17 30 9 16 1017.1 1015.1 0.0
21/05:30pm 23.9 22.1 15.4 59 5.3 ENE 19 28 10 15 1017.0 1015.0 0.0
21/05:00pm 23.4 21.5 15.7 62 4.8 ESE 20 26 11 14 1016.9 1014.9 0.0
21/04:30pm 24.8 25.4 15.4 56 5.8 ENE 6 17 3 9 1016.8 1014.7 0.0
21/04:00pm 24.5 24.2 15.4 57 5.6 E 11 17 6 9 1016.8 1014.7 0.0
21/03:30pm 23.5 23.0 14.8 58 5.3 E 11 15 6 8 1016.9 1014.9 0.0
21/03:00pm 24.7 25.8 14.5 53 6.2 E 2 11 1 6 1017.3 1015.3 0.0
21/02:30pm 24.7 25.3 15.3 56 5.8 SE 6 11 3 6 1017.5 1015.5 0.0
21/02:00pm 22.9 23.3 14.7 60 5.0 NNW 6 13 3 7 1018.0 1016.0 0.0
21/01:30pm 22.3 22.3 15.2 64 4.3 NNE 9 15 5 8 1018.4 1016.4 0.0
21/01:00pm 22.3 22.1 14.7 62 4.6 E 9 15 5 8 1018.8 1016.8 0.0
21/12:30pm 22.0 21.6 15.1 65 4.2 ENE 11 17 6 9 1019.1 1017.1 0.0
21/12:00pm 21.7 21.4 15.5 68 3.8 ESE 11 17 6 9 1019.4 1017.4 0.0
21/11:30am 20.7 20.2 15.0 70 3.5 ESE 11 17 6 9 1019.6 1017.7 0.0
21/11:00am 20.3 19.0 14.9 71 3.3 SE 15 20 8 11 1019.7 1017.8 0.0
21/10:32am 19.9 18.6 14.9 73 3.0 SE 15 20 8 11 1019.6 1017.7 0.0
21/10:30am 19.8 18.5 14.8 73 3.0 SE 15 20 8 11 1019.6 1017.7 0.0
21/10:00am 19.3 18.4 14.8 75 2.7 SE 13 17 7 9 1019.5 1017.5 0.0
21/09:30am 18.7 18.1 14.6 77 2.4 SE 11 15 6 8 1019.4 1017.4 0.0
21/09:00am 18.0 17.5 14.9 82 1.9 ESE 11 15 6 8 1019.2 1017.2 0.0
21/08:30am 17.5 17.3 14.8 84 1.6 SE 9 17 5 9 1019.1 1017.1 0.0
21/08:00am 17.1 16.4 14.2 83 1.7 SE 11 17 6 9 1019.0 1017.0 0.0
21/07:30am 17.0 17.0 14.3 84 1.6 SSE 7 11 4 6 1018.7 1016.7 0.0
21/07:00am 16.9 16.0 13.8 82 1.8 SSE 11 15 6 8 1018.4 1016.4 0.0
21/06:30am 16.9 16.1 14.0 83 1.7 SE 11 17 6 9 1018.0 1016.0 0.0
21/06:00am 16.9 16.5 14.2 84 1.6 S 9 11 5 6 1017.9 1015.9 0.0
21/05:30am 17.0 16.3 14.3 84 1.6 S 11 13 6 7 1017.6 1015.6 0.0
21/05:00am 17.0 18.2 14.8 87 1.3 SE 2 7 1 4 1017.4 1015.4 0.0
21/04:30am 16.9 16.7 14.7 87 1.3 SE 9 11 5 6 1017.1 1015.1 0.0
21/04:00am 17.0 16.7 14.3 84 1.6 SSE 9 13 5 7 1017.1 1015.1 0.0
21/03:30am 17.1 17.3 14.7 86 1.4 SSE 7 13 4 7 1017.1 1015.1 0.0
21/03:00am 16.9 16.9 15.1 89 1.1 SSE 9 13 5 7 1017.3 1015.3 0.0
21/02:30am 16.8 16.7 15.0 89 1.1 SE 9 17 5 9 1017.4 1015.4 0.0
21/02:00am 16.8 17.0 15.7 93 0.7 SE 9 11 5 6 1017.6 1015.6 0.0
21/01:30am 16.6 17.8 15.8 95 0.5 SE 4 7 2 4 1017.8 1015.8 0.0
21/01:00am 16.3 16.9 15.7 96 0.4 SE 7 9 4 5 1017.9 1015.9 0.0
21/12:30am 15.8 16.3 15.0 95 0.5 SE 6 7 3 4 1017.9 1015.9 0.0
21/12:02am 15.5 17.0 14.7 95 0.5 CALM 0 0 0 0 1018.1 1016.1 0.0
21/12:00am 15.5 17.0 14.7 95 0.5 CALM 0 0 0 0 1018.1 1016.1 0.0
 
Date/Time
EDT
Temp
°C
App
Temp
°C
Dew
Point
°C
Rel
Hum
%
Delta-T
°C
Wind Press
QNH
hPa
Press
MSL
hPa
Rain since
9am
mm
Dir  Spd
km/h
Gust
km/h
Spd
kts
Gust
kts
20/11:30pm 15.9 16.4 14.9 94 0.6 SE 6 7 3 4 1018.1 1016.1 0.0
20/11:00pm 16.6 17.7 15.5 93 0.7 SE 4 9 2 5 1018.3 1016.3 0.0
20/10:30pm 16.7 16.8 15.4 92 0.8 SE 9 11 5 6 1018.0 1016.0 0.0
20/10:00pm 17.3 17.6 16.0 92 0.8 SE 9 11 5 6 1018.3 1016.3 0.0
20/09:30pm 17.7 17.6 15.9 89 1.1 ESE 11 17 6 9 1017.9 1015.9 0.0
20/09:00pm 18.0 17.6 16.2 89 1.1 E 13 15 7 8 1017.6 1015.6 0.0
20/08:30pm 18.6 17.4 16.2 86 1.5 E 17 22 9 12 1017.3 1015.3 0.0
20/08:00pm 19.1 18.3 16.1 83 1.8 E 15 24 8 13 1016.9 1014.9 0.0
20/07:30pm 19.6 18.1 16.3 81 2.0 E 19 26 10 14 1016.4 1014.4 0.0
20/07:00pm 20.5 19.2 15.9 75 2.8 E 17 20 9 11 1016.1 1014.1 0.0
20/06:30pm 21.5 20.5 15.6 69 3.6 E 15 20 8 11 1015.7 1013.7 0.0
20/06:00pm 23.2 21.0 15.0 60 5.0 ESE 20 28 11 15 1015.4 1013.3 0.0
20/05:30pm 23.6 20.7 12.9 51 6.3 ESE 20 30 11 16 1015.2 1013.1 0.0
20/05:00pm 24.6 23.9 13.2 49 6.8 S 9 15 5 8 1015.0 1012.9 0.0
20/04:30pm 24.4 23.7 13.3 50 6.6 ESE 9 17 5 9 1015.1 1013.0 0.0
20/04:00pm 24.3 24.1 13.5 51 6.5 S 7 26 4 14 1015.1 1013.0 0.0
20/03:30pm 24.6 24.8 14.1 52 6.4 S 6 13 3 7 1015.2 1013.1 0.0
20/03:00pm 23.8 23.6 13.6 52 6.1 S 7 13 4 7 1015.5 1013.5 0.0
20/02:30pm 23.3 24.1 13.8 55 5.7 SE 2 13 1 7 1015.8 1013.8 0.0
20/02:00pm 22.9 23.7 13.7 56 5.5 S 2 11 1 6 1016.3 1014.3 0.0
20/01:30pm 22.8 23.6 13.8 57 5.4 NE 2 9 1 5 1016.6 1014.5 0.0
20/01:00pm 21.7 22.6 13.9 61 4.7 SSE 2 9 1 5 1016.9 1014.9 0.0
20/12:30pm 21.0 21.7 14.4 66 4.0 S 4 11 2 6 1017.1 1015.1 0.0
20/12:00pm 21.2 22.2 14.4 65 4.1 SSE 2 9 1 5 1017.4 1015.4 0.0
20/11:30am 20.0 19.9 13.9 68 3.6 S 7 11 4 6 1017.6 1015.6 0.0
20/11:00am 20.0 19.8 13.7 67 3.7 ESE 7 11 4 6 1017.5 1015.5 0.0
20/10:30am 19.5 18.8 14.3 72 3.1 E 11 13 6 7 1017.6 1015.6 0.0
20/10:00am 19.0 19.1 14.5 75 2.7 SE 7 9 4 5 1017.7 1015.7 0.0
20/09:40am 18.8 19.3 15.5 81 2.0 SE 7 11 4 6 1017.5 1015.5 0.0
20/09:30am 18.3 18.9 15.2 82 1.9 S 6 9 3 5 1017.5 1015.5 0.0
20/09:22am 18.2 19.0 15.8 86 1.5 SSE 6 9 3 5 1017.5 1015.5 0.0
20/09:18am 17.8 18.4 15.2 85 1.6 SSE 6 9 3 5 1017.5 1015.5 0.0
20/09:00am 18.0 19.2 15.8 87 1.3 SE 4 7 2 4 1017.3 1015.3 0.6
20/08:59am 18.0 19.2 15.8 87 1.3 SSE 4 6 2 3 1017.3 1015.3 0.6
20/08:30am 16.9 17.4 15.6 92 0.8 S 7 9 4 5 1017.1 1015.1 0.6
20/08:00am 16.0 16.6 15.8 99 0.1 SW 7 9 4 5 1016.9 1014.9 0.6
20/07:30am 15.3 15.7 14.8 97 0.3 SSW 6 7 3 4 1016.3 1014.3 0.6
20/07:00am 15.8 16.7 15.2 96 0.4 SSW 4 6 2 3 1016.1 1014.1 0.6
20/06:30am 16.2 16.8 15.7 97 0.3 SSW 7 7 4 4 1016.0 1014.0 0.6
20/06:08am 16.4 17.0 15.8 96 0.4 SSE 7 7 4 4 1016.0 1014.0 0.6
20/06:00am 16.3 17.0 15.5 95 0.5 SSE 6 7 3 4 1015.9 1013.9 0.6
20/05:30am 16.4 17.5 15.6 95 0.5 SSE 4 7 2 4 1015.9 1013.9 0.6
20/05:00am 16.1 17.9 15.5 96 0.4 CALM 0 0 0 0 1015.8 1013.8 0.6
20/04:30am 16.2 18.1 15.7 97 0.3 CALM 0 0 0 0 1015.7 1013.7 0.6
20/04:00am 16.2 17.0 15.9 98 0.2 SW 6 7 3 4 1015.7 1013.7 0.6
20/03:30am 16.2 16.8 15.9 98 0.2 SSW 7 9 4 5 1015.8 1013.8 0.6
20/03:00am 16.2 17.1 16.0 99 0.1 SSW 6 7 3 4 1016.0 1014.0 0.6
20/02:30am 16.3 17.0 16.1 99 0.1 S 7 9 4 5 1016.1 1014.1 0.6
20/02:00am 16.1 16.7 15.9 99 0.1 S 7 9 4 5 1016.3 1014.3 0.6
20/01:30am 15.9 16.6 15.7 99 0.1 SE 6 9 3 5 1016.7 1014.6 0.6
20/01:00am 15.6 16.2 15.4 99 0.1 SE 6 11 3 6 1016.8 1014.7 0.6
20/12:30am 15.5 15.5 15.3 99 0.1 SE 9 11 5 6 1017.0 1015.0 0.6
20/12:00am 15.0 16.6 14.8 99 0.1 CALM 0 0 0 0 1017.1 1015.1 0.6
 
Date/Time
EDT
Temp
°C
App
Temp
°C
Dew
Point
°C
Rel
Hum
%
Delta-T
°C
Wind Press
QNH
hPa
Press
MSL
hPa
Rain since
9am
mm
Dir  Spd
km/h
Gust
km/h
Spd
kts
Gust
kts
19/11:46pm 14.7 16.0 14.2 97 0.3 CALM 0 0 0 0 1017.2 1015.2 0.6
19/11:37pm 15.0 16.1 14.7 98 0.2 SE 2 6 1 3 1017.2 1015.2 0.6
19/11:30pm 15.0 15.4 14.7 98 0.2 SE 6 7 3 4 1017.2 1015.2 0.6
19/11:00pm 15.1 16.6 14.6 97 0.3 CALM 0 0 0 0 1017.4 1015.4 0.6
19/10:46pm 14.9 16.2 14.1 95 0.5 CALM 0 0 0 0 1017.3 1015.3 0.6
19/10:30pm 15.1 16.4 14.0 93 0.6 CALM 0 0 0 0 1017.4 1015.4 0.6
19/10:00pm 15.9 16.7 14.9 94 0.6 SE 4 7 2 4 1017.3 1015.3 0.6
19/09:30pm 15.9 15.4 14.8 93 0.7 SE 11 11 6 6 1017.1 1015.1 0.6
19/09:00pm 16.5 16.0 14.9 90 1.0 SSE 11 13 6 7 1017.0 1015.0 0.6
19/08:30pm 17.2 16.5 15.4 89 1.1 SSE 13 13 7 7 1016.6 1014.5 0.6
19/08:00pm 17.6 17.1 15.0 85 1.6 SSE 11 13 6 7 1016.0 1014.0 0.6
19/07:30pm 18.3 17.5 15.2 82 1.9 SE 13 19 7 10 1015.8 1013.8 0.6
19/07:00pm 18.8 17.2 15.1 79 2.2 SE 17 20 9 11 1015.7 1013.7 0.6
19/06:30pm 19.8 17.4 14.4 71 3.2 SE 20 30 11 16 1015.4 1013.3 0.6
19/06:00pm 20.0 17.0 14.8 72 3.1 SE 24 30 13 16 1015.0 1012.9 0.6
19/05:30pm 21.0 19.0 15.5 71 3.4 SSE 20 26 11 14 1014.9 1012.8 0.6
19/05:00pm 20.3 18.4 15.3 73 3.0 SE 19 26 10 14 1014.7 1012.7 0.6
19/04:30pm 20.2 18.0 15.0 72 3.1 SSE 20 28 11 15 1015.0 1012.9 0.6
19/04:00pm 20.8 17.4 14.7 68 3.7 SE 26 39 14 21 1015.2 1013.1 0.6
19/03:30pm 21.2 18.1 14.4 65 4.1 SSE 24 32 13 17 1015.1 1013.0 0.6
19/03:00pm 20.6 18.2 15.4 72 3.2 SSE 22 28 12 15 1015.0 1012.9 0.6
19/02:30pm 21.2 18.8 15.5 70 3.5 SSE 22 32 12 17 1015.1 1013.0 0.6
19/02:00pm 19.4 17.1 16.6 84 1.7 SSE 24 30 13 16 1015.3 1013.2 0.6
19/01:30pm 20.5 18.2 15.7 74 2.9 S 22 30 12 16 1015.5 1013.5 0.2
19/01:00pm 20.7 17.2 15.5 72 3.2 SSE 28 33 15 18 1015.8 1013.8 0.2
19/12:30pm 22.1 20.0 15.2 65 4.2 SSE 20 28 11 15 1016.1 1014.1 0.0
19/12:00pm 20.6 18.6 15.4 72 3.2 SSE 20 26 11 14 1016.3 1014.3 0.0
19/11:30am 21.0 19.6 15.5 71 3.4 SE 17 26 9 14 1016.4 1014.4 0.0
19/11:00am 19.7 18.9 17.1 85 1.6 SSE 17 28 9 15 1016.7 1014.6 0.0
19/10:30am 17.8 16.2 16.5 92 0.8 SSE 20 28 11 15 1016.9 1014.9 0.0
19/10:00am 17.9 16.5 17.1 95 0.5 SSE 20 24 11 13 1016.7 1014.6 0.0
19/09:30am 17.4 16.6 17.1 98 0.2 S 17 20 9 11 1016.4 1014.4 0.0
19/09:00am 17.3 15.9 16.5 95 0.5 SSE 19 22 10 12 1016.0 1014.0 3.6
19/08:30am 16.7 16.0 16.4 98 0.2 S 15 19 8 10 1015.7 1013.7 3.6
19/08:00am 16.5 16.5 16.3 99 0.1 SSE 11 15 6 8 1015.6 1013.6 3.6
19/07:30am 16.5 16.1 16.3 99 0.1 SSE 13 15 7 8 1015.4 1013.3 3.6
19/07:00am 15.8 15.2 15.6 99 0.1 SE 13 17 7 9 1015.1 1013.0 3.4
19/06:30am 16.3 15.5 16.1 99 0.1 S 15 17 8 9 1014.6 1012.6 2.4
19/06:00am 16.3 15.9 16.1 99 0.1 S 13 17 7 9 1014.5 1012.5 2.0
19/05:30am 16.4 16.0 16.2 99 0.1 S 13 15 7 8 1014.5 1012.5 1.8
19/05:00am 16.4 16.4 16.2 99 0.1 S 11 13 6 7 1014.5 1012.5 1.6
19/04:30am 16.4 16.0 16.2 99 0.1 S 13 15 7 8 1014.4 1012.4 1.6
19/04:00am 16.4 16.4 16.2 99 0.1 S 11 15 6 8 1014.5 1012.5 1.6
19/03:30am 16.4 16.4 16.2 99 0.1 SSW 11 17 6 9 1014.6 1012.6 1.6
19/03:00am 16.4 16.8 16.2 99 0.1 SSW 9 13 5 7 1014.7 1012.7 1.6
19/02:30am 16.2 16.1 16.0 99 0.1 SSW 11 13 6 7 1015.0 1012.9 1.6
19/02:00am 16.2 16.1 15.9 98 0.2 SSW 11 13 6 7 1015.3 1013.2 1.6
19/01:30am 16.4 17.0 15.9 97 0.3 SE 7 9 4 5 1015.5 1013.5 1.6
19/01:00am 16.5 16.4 16.0 97 0.3 SSE 11 13 6 7 1015.7 1013.7 1.6
19/12:30am 16.4 16.3 15.9 97 0.3 SSE 11 13 6 7 1015.7 1013.7 1.6
19/12:00am 16.4 16.3 15.9 97 0.3 S 11 15 6 8 1015.7 1013.7 1.6
 
Date/Time
EDT
Temp
°C
App
Temp
°C
Dew
Point
°C
Rel
Hum
%
Delta-T
°C
Wind Press
QNH
hPa
Press
MSL
hPa
Rain since
9am
mm
Dir  Spd
km/h
Gust
km/h
Spd
kts
Gust
kts
18/11:30pm 16.5 15.8 15.4 93 0.7 S 13 15 7 8 1015.8 1013.8 0.8
18/11:26pm 16.5 15.8 15.4 93 0.7 S 13 15 7 8 1015.9 1013.9 0.8
18/11:00pm 16.5 15.7 15.2 92 0.8 SSE 13 17 7 9 1015.9 1013.9 0.8
18/10:30pm 16.5 15.8 15.4 93 0.7 SSE 13 17 7 9 1016.1 1014.1 0.8
18/10:00pm 16.7 15.4 14.9 89 1.1 SE 15 20 8 11 1016.0 1014.0 0.8
18/09:30pm 16.8 16.0 15.2 90 1.0 SE 13 19 7 10 1016.0 1014.0 0.8
18/09:00pm 16.8 15.6 15.0 89 1.1 SE 15 20 8 11 1015.9 1013.9 0.8
18/08:30pm 16.8 15.2 15.0 89 1.1 SE 17 24 9 13 1015.4 1013.3 0.8
18/08:00pm 16.2 15.6 14.6 90 0.9 SE 11 13 6 7 1015.1 1013.0 0.8
18/07:30pm 17.2 16.0 15.0 87 1.3 SSE 15 20 8 11 1014.9 1012.8 0.8

Other formats

Comma delimited format used in spreadsheet applications
http://www.bom.gov.au/fwo/IDN60801/IDN60801.95716.axf

JavaScript Object Notation format (JSON) in row-major order
http://www.bom.gov.au/fwo/IDN60801/IDN60801.95716.json

Data quality

Most of these data are generated automatically and are frequently updated. Quality checks on data are not normally performed. It is possible for incorrect values to appear. Refer to information at About Latest Weather Observations and please check the disclaimer before using these data.